Time;durP1;ratioP1;P1;durP2;ratioP2;P2;SDS_P1;SDS_P2;PMS_P1;PMS_P2;Temp;Humidity;BMP_temperature;BMP_pressure;BME280_temperature;BME280_humidity;BME280_pressure;Samples;Min_cycle;Max_cycle;Signal;HPM_P1;HPM_P2
2022/01/20 00:01:50;;;;;;;30.70;19.70;;;;;;;0.64;75.82;99371.50;106818;1273;96652;-70
2022/01/20 00:04:26;;;;;;;34.50;20.00;;;;;;;0.64;75.89;99371.50;107167;1273;110278;-71
2022/01/20 00:20:39;;;;;;;31.10;19.00;;;;;;;0.72;75.83;99360.84;107282;1272;107868;-71
2022/01/20 00:26:53;;;;;;;36.70;21.40;;;;;;;0.84;75.53;99324.99;107635;1270;96938;-74
2022/01/20 00:29:27;;;;;;;33.00;19.70;;;;;;;0.83;75.52;99327.90;107187;1273;137396;-75
2022/01/20 00:32:06;;;;;;;34.50;19.90;;;;;;;0.84;75.58;99326.87;106073;1273;112049;-75
2022/01/20 00:37:21;;;;;;;31.30;19.30;;;;;;;0.88;75.41;99310.75;105908;1273;139006;-73
2022/01/20 00:39:50;;;;;;;35.80;20.10;;;;;;;0.91;75.42;99300.48;106404;1273;96517;-73
2022/01/20 00:42:19;;;;;;;32.00;19.50;;;;;;;0.94;75.45;99285.56;105763;1273;138847;-74
2022/01/20 00:44:48;;;;;;;32.90;20.90;;;;;;;0.96;75.30;99285.38;105984;1274;110910;-73
2022/01/20 00:47:18;;;;;;;35.80;21.60;;;;;;;0.96;75.33;99286.57;106133;1273;108194;-74
2022/01/20 00:49:48;;;;;;;31.10;20.80;;;;;;;0.95;75.15;99276.48;105902;1273;138551;-73
2022/01/20 00:52:16;;;;;;;33.70;19.90;;;;;;;0.92;75.18;99284.21;106627;1273;96486;-74
2022/01/20 00:54:45;;;;;;;30.90;19.80;;;;;;;0.92;75.30;99267.27;105925;1273;138510;-73
2022/01/20 00:57:15;;;;;;;30.70;18.80;;;;;;;0.95;75.17;99271.19;106022;1273;109596;-74
2022/01/20 00:59:44;;;;;;;35.20;19.40;;;;;;;0.96;75.21;99267.41;105914;1273;138757;-73
2022/01/20 01:02:12;;;;;;;32.00;20.20;;;;;;;0.99;75.40;99278.48;105983;1273;107252;-74
2022/01/20 01:04:42;;;;;;;33.10;20.50;;;;;;;1.01;75.24;99261.87;105963;1273;96499;-73
2022/01/20 01:07:44;;;;;;;29.90;19.20;;;;;;;1.04;75.31;99254.98;105840;1273;137979;-73
2022/01/20 01:10:15;;;;;;;32.10;19.80;;;;;;;1.05;75.18;99254.11;106097;1273;111393;-73
2022/01/20 01:12:49;;;;;;;31.40;19.80;;;;;;;1.05;75.14;99243.34;105968;1273;139040;-74
2022/01/20 01:15:22;;;;;;;34.40;20.80;;;;;;;1.04;75.30;99235.30;106373;1273;108945;-74
2022/01/20 01:23:22;;;;;;;28.60;18.00;;;;;;;1.13;75.14;99237.45;105745;1277;110841;-73
2022/01/20 01:25:51;;;;;;;32.10;19.60;;;;;;;1.17;75.08;99230.55;105678;1278;137387;-74
2022/01/20 01:28:22;;;;;;;31.80;19.70;;;;;;;1.19;75.12;99228.98;105824;1277;108817;-74
2022/01/20 01:31:14;;;;;;;33.50;21.50;;;;;;;1.19;75.26;99217.68;105679;1278;137707;-74
2022/01/20 01:33:53;;;;;;;33.10;20.90;;;;;;;1.23;75.24;99213.17;105783;1276;96436;-73
2022/01/20 01:36:23;;;;;;;35.30;20.70;;;;;;;1.25;75.08;99210.25;105502;1277;138396;-72
2022/01/20 01:38:52;;;;;;;34.90;21.70;;;;;;;1.24;74.98;99203.59;105709;1277;107863;-73
2022/01/20 01:41:29;;;;;;;37.80;20.80;;;;;;;1.20;75.00;99194.38;105604;1276;108841;-73
2022/01/20 01:44:00;;;;;;;;;;;;;;;1.18;74.85;99196.80;105564;1279;138419;-73
2022/01/20 01:46:30;;;;;;;34.10;21.00;;;;;;;1.16;74.84;99190.84;105693;1276;96424;-73
2022/01/20 01:48:59;;;;;;;30.10;19.10;;;;;;;1.17;75.10;99177.30;105554;1277;139229;-73
2022/01/20 01:51:27;;;;;;;33.40;20.50;;;;;;;1.19;75.08;99167.69;105682;1278;106829;-73
2022/01/20 01:53:56;;;;;;;34.30;19.90;;;;;;;1.23;75.16;99169.87;105565;1277;137796;-73
2022/01/20 01:56:25;;;;;;;37.10;21.20;;;;;;;1.25;75.20;99161.96;105750;1277;96494;-75
2022/01/20 01:58:55;;;;;;;37.40;21.80;;;;;;;1.23;75.16;99152.91;105734;1278;96598;-73
2022/01/20 02:01:42;;;;;;;36.60;22.80;;;;;;;1.20;75.60;99149.87;105860;1273;139478;-75
2022/01/20 02:04:16;;;;;;;34.00;21.60;;;;;;;1.16;75.86;99150.27;106035;1273;107866;-72
2022/01/20 02:07:21;;;;;;;38.50;21.90;;;;;;;1.11;76.14;99149.98;105829;1273;139376;-73
2022/01/20 02:18:37;;;;;;;34.60;22.80;;;;;;;0.98;77.45;99136.61;105853;1273;137398;-72
2022/01/20 02:21:19;;;;;;;37.60;22.90;;;;;;;0.96;77.59;99123.64;105860;1273;107937;-73
2022/01/20 02:23:49;;;;;;;42.00;24.70;;;;;;;0.94;77.57;99123.66;105895;1274;139103;-72
2022/01/20 02:26:18;;;;;;;34.30;22.40;;;;;;;0.90;78.09;99122.83;105993;1273;97208;-72
2022/01/20 02:28:47;;;;;;;36.10;22.90;;;;;;;0.86;78.18;99116.02;106075;1273;111104;-74
2022/01/20 02:31:17;;;;;;;35.10;21.80;;;;;;;0.81;78.41;99102.73;105882;1273;138696;-73
2022/01/20 02:33:46;;;;;;;35.10;22.20;;;;;;;0.79;78.85;99104.82;106004;1273;108213;-75
2022/01/20 02:36:17;;;;;;;33.10;21.20;;;;;;;0.75;78.95;99098.71;105843;1273;139822;-72
2022/01/20 02:38:51;;;;;;;35.30;21.30;;;;;;;0.72;79.33;99091.38;105913;1273;96601;-72
2022/01/20 02:46:54;;;;;;;35.60;23.10;;;;;;;0.67;81.64;99080.66;105873;1274;108067;-75
2022/01/20 02:49:23;;;;;;;43.80;24.00;;;;;;;0.63;81.33;99082.08;105880;1273;137651;-74
2022/01/20 02:51:53;;;;;;;40.70;23.60;;;;;;;0.59;81.18;99070.48;105978;1274;96418;-74
2022/01/20 02:54:23;;;;;;;33.90;22.30;;;;;;;0.58;81.47;99069.83;105882;1273;138677;-74
2022/01/20 02:56:51;;;;;;;35.10;21.60;;;;;;;0.54;81.53;99055.31;105707;1273;108960;-74
2022/01/20 02:59:20;;;;;;;39.50;22.20;;;;;;;0.52;81.60;99047.96;105978;1273;107920;-73
2022/01/20 03:01:49;;;;;;;33.60;22.10;;;;;;;0.55;81.57;99045.73;105732;1273;139272;-73
2022/01/20 03:04:20;;;;;;;38.30;22.90;;;;;;;0.54;81.44;99043.17;105948;1276;96414;-74
2022/01/20 03:06:48;;;;;;;33.20;21.30;;;;;;;0.51;81.65;99036.52;105952;1273;137305;-73
2022/01/20 03:09:17;;;;;;;38.50;24.00;;;;;;;0.47;81.75;99026.30;105894;1273;108999;-73
2022/01/20 03:11:48;;;;;;;38.60;22.80;;;;;;;0.44;81.87;99024.64;105792;1273;138982;-73
2022/01/20 03:14:18;;;;;;;34.40;21.60;;;;;;;0.42;82.15;99022.27;105885;1273;96626;-73
2022/01/20 03:16:47;;;;;;;34.90;21.80;;;;;;;0.42;82.24;99018.16;105994;1272;96568;-73
2022/01/20 03:19:17;;;;;;;32.20;20.40;;;;;;;0.42;82.56;99014.40;105749;1273;139715;-73
2022/01/20 03:21:46;;;;;;;31.70;20.20;;;;;;;0.45;82.66;99016.08;105987;1274;109755;-74
2022/01/20 03:24:15;;;;;;;29.20;18.40;;;;;;;0.47;82.82;99002.20;105841;1273;138234;-73
2022/01/20 03:26:44;;;;;;;31.60;21.00;;;;;;;0.46;82.96;99010.76;105767;1273;97205;-72
2022/01/20 03:29:12;;;;;;;33.10;20.10;;;;;;;0.47;83.06;99000.84;105916;1273;96408;-72
2022/01/20 03:31:41;;;;;;;33.00;21.10;;;;;;;0.48;83.21;99004.91;105887;1273;137401;-74
2022/01/20 03:34:10;;;;;;;31.50;21.00;;;;;;;0.46;83.33;98996.73;105814;1273;107980;-73
2022/01/20 03:36:41;;;;;;;30.30;20.40;;;;;;;0.47;83.32;99001.00;105696;1273;138853;-74
2022/01/20 03:39:17;;;;;;;35.60;19.70;;;;;;;0.49;83.36;98996.70;105708;1273;96541;-74
2022/01/20 03:41:46;;;;;;;29.10;18.90;;;;;;;0.49;83.78;98999.60;105808;1273;139080;-73
2022/01/20 03:44:22;;;;;;;28.90;18.20;;;;;;;0.51;83.81;98992.05;105812;1273;111162;-74
2022/01/20 03:46:50;;;;;;;28.10;18.00;;;;;;;0.55;84.06;98990.31;105738;1273;108879;-72
2022/01/20 03:49:32;;;;;;;29.10;18.40;;;;;;;0.58;84.37;98979.84;105666;1273;138243;-73
2022/01/20 03:52:02;;;;;;;32.20;20.10;;;;;;;0.60;84.00;98993.85;105746;1273;96494;-75
2022/01/20 03:54:31;;;;;;;31.40;20.10;;;;;;;0.63;84.21;98985.94;105661;1273;137195;-75
2022/01/20 03:57:15;;;;;;;29.10;17.90;;;;;;;0.63;84.18;98987.48;106013;1273;111320;-73
2022/01/20 04:00:03;;;;;;;28.60;17.90;;;;;;;0.63;84.02;98984.90;105711;1274;138195;-72
2022/01/20 04:02:45;;;;;;;26.50;17.30;;;;;;;0.67;84.10;98977.85;105615;1273;108948;-72
2022/01/20 04:05:36;;;;;;;24.20;16.90;;;;;;;0.70;84.16;98981.05;105835;1274;97198;-72
2022/01/20 04:08:31;;;;;;;25.60;15.60;;;;;;;0.73;84.33;98967.51;105813;1275;97535;-73
2022/01/20 04:11:01;;;;;;;21.80;15.70;;;;;;;0.77;84.33;98961.81;105796;1274;111390;-73
2022/01/20 04:13:31;;;;;;;24.40;17.00;;;;;;;0.78;84.27;98974.97;105713;1273;138031;-74
2022/01/20 04:16:01;;;;;;;26.00;17.70;;;;;;;0.79;84.35;98969.31;105691;1273;107832;-74
2022/01/20 04:18:30;;;;;;;27.40;16.60;;;;;;;0.79;84.15;98967.27;105543;1273;137563;-74
2022/01/20 04:20:59;;;;;;;21.50;15.00;;;;;;;0.78;84.40;98968.64;105721;1274;96489;-74
2022/01/20 04:23:30;;;;;;;23.60;16.00;;;;;;;0.79;84.40;98968.46;105687;1273;110258;-73
2022/01/20 04:25:59;;;;;;;21.10;14.50;;;;;;;0.80;84.51;98963.98;105687;1273;138427;-73
2022/01/20 04:28:27;;;;;;;19.90;14.40;;;;;;;0.82;84.17;98956.95;105952;1273;109373;-74
2022/01/20 04:30:56;;;;;;;20.40;15.40;;;;;;;0.85;84.55;98957.23;105727;1273;138200;-73
2022/01/20 04:33:25;;;;;;;20.30;15.00;;;;;;;0.89;84.16;98965.56;105572;1273;96702;-74
2022/01/20 04:35:54;;;;;;;22.90;15.80;;;;;;;0.93;84.43;98956.83;105907;1273;111223;-73
2022/01/20 04:38:22;;;;;;;22.10;15.60;;;;;;;0.93;84.31;98947.58;105647;1273;138567;-73
2022/01/20 04:40:51;;;;;;;23.10;15.10;;;;;;;0.94;84.28;98949.27;105777;1274;109625;-74
2022/01/20 04:43:20;;;;;;;20.90;14.80;;;;;;;0.97;84.24;98956.92;105713;1273;140315;-73
2022/01/20 04:45:56;;;;;;;22.40;15.10;;;;;;;1.00;84.27;98950.53;105860;1273;96521;-74
2022/01/20 04:48:32;;;;;;;19.70;14.20;;;;;;;1.03;84.31;98947.92;105756;1273;137960;-73
2022/01/20 04:59:21;;;;;;;23.60;16.30;;;;;;;1.10;84.14;98941.84;105681;1274;96603;-73
2022/01/20 05:01:51;;;;;;;22.20;14.50;;;;;;;1.09;84.09;98944.77;105834;1273;138285;-73
2022/01/20 05:04:31;;;;;;;20.90;14.10;;;;;;;1.10;84.17;98942.36;105661;1273;109108;-73
2022/01/20 05:07:10;;;;;;;19.40;14.10;;;;;;;1.12;84.17;98939.06;105577;1274;138061;-75
2022/01/20 05:09:39;;;;;;;21.00;14.20;;;;;;;1.17;84.16;98934.53;105781;1273;96619;-74
2022/01/20 05:12:09;;;;;;;20.80;14.70;;;;;;;1.19;84.09;98933.98;105653;1274;96616;-74
2022/01/20 05:14:39;;;;;;;19.70;15.40;;;;;;;1.21;84.18;98928.48;105686;1274;138705;-74
2022/01/20 05:17:08;;;;;;;20.70;14.80;;;;;;;1.21;84.09;98924.53;105846;1273;108773;-73
2022/01/20 05:19:36;;;;;;;20.10;14.80;;;;;;;1.20;84.15;98923.52;105553;1276;138184;-74
2022/01/20 05:22:05;;;;;;;21.10;14.80;;;;;;;1.18;84.23;98919.95;105648;1273;96523;-74
2022/01/20 05:24:43;;;;;;;22.80;14.00;;;;;;;1.20;84.15;98920.27;105613;1273;138945;-74
2022/01/20 05:27:12;;;;;;;21.60;14.30;;;;;;;1.23;84.31;98911.33;105910;1273;110754;-73
2022/01/20 05:29:42;;;;;;;22.80;14.50;;;;;;;1.27;84.16;98918.98;105951;1273;108885;-74
2022/01/20 05:32:10;;;;;;;22.70;14.70;;;;;;;1.28;84.03;98918.64;105835;1275;137345;-74
2022/01/20 05:34:39;;;;;;;30.20;16.40;;;;;;;1.28;84.06;98912.29;105917;1273;96686;-74
2022/01/20 05:37:08;;;;;;;23.10;16.50;;;;;;;1.28;83.92;98907.16;105585;1274;137338;-74
2022/01/20 05:39:37;;;;;;;24.60;16.60;;;;;;;1.26;83.92;98909.91;105787;1273;111555;-74
2022/01/20 05:42:07;;;;;;;25.70;15.70;;;;;;;1.27;83.81;98905.13;106022;1273;108925;-74
2022/01/20 05:44:42;;;;;;;22.50;14.80;;;;;;;1.26;83.87;98907.00;105787;1273;139258;-74
2022/01/20 05:47:12;;;;;;;21.10;14.80;;;;;;;1.27;83.80;98909.73;105738;1273;96476;-73
2022/01/20 05:50:11;;;;;;;21.80;13.60;;;;;;;1.31;83.99;98917.89;105306;1274;138094;-74
2022/01/20 05:52:41;;;;;;;23.30;14.80;;;;;;;1.35;84.00;98943.16;105739;1273;110203;-74
2022/01/20 05:55:14;;;;;;;12.80;8.60;;;;;;;1.35;83.39;98942.30;105674;1273;137797;-75
2022/01/20 05:57:43;;;;;;;11.60;7.10;;;;;;;1.29;82.10;98938.13;105819;1273;107630;-74
2022/01/20 06:00:15;;;;;;;13.00;5.90;;;;;;;1.19;81.39;98942.38;105898;1273;96629;-73
2022/01/20 06:05:32;;;;;;;8.00;4.20;;;;;;;1.01;81.01;98944.86;105742;1273;111391;-73
2022/01/20 06:08:01;;;;;;;9.30;4.00;;;;;;;0.92;80.35;98945.52;105707;1273;138429;-73
2022/01/20 06:10:31;;;;;;;7.40;3.60;;;;;;;0.84;80.33;98949.38;105746;1273;109273;-73
2022/01/20 06:13:06;;;;;;;6.10;3.10;;;;;;;0.81;80.15;98955.93;105701;1273;136672;-73
2022/01/20 06:15:35;;;;;;;10.20;3.70;;;;;;;0.79;80.06;98950.31;105703;1273;96476;-74
2022/01/20 06:18:04;;;;;;;11.30;4.00;;;;;;;0.79;79.97;98941.59;105792;1273;110701;-74
2022/01/20 06:20:34;;;;;;;12.80;4.20;;;;;;;0.77;79.61;98947.96;105787;1273;137366;-73
2022/01/20 06:23:04;;;;;;;11.60;3.70;;;;;;;0.76;79.60;98947.96;107063;1273;107782;-74
2022/01/20 06:25:34;;;;;;;10.80;3.60;;;;;;;0.74;79.59;98945.78;106723;1273;139019;-73
2022/01/20 06:28:02;;;;;;;9.70;3.40;;;;;;;0.72;79.25;98946.48;105811;1275;96397;-73
2022/01/20 06:30:32;;;;;;;8.70;3.20;;;;;;;0.69;79.16;98954.20;106742;1273;137637;-74
2022/01/20 06:33:01;;;;;;;11.20;3.10;;;;;;;0.67;78.94;98940.39;106317;1273;109009;-74
2022/01/20 06:35:37;;;;;;;7.50;3.10;;;;;;;0.66;78.83;98937.33;105788;1273;109509;-74
2022/01/20 06:38:06;;;;;;;9.90;3.20;;;;;;;0.67;78.81;98931.30;105843;1273;139448;-74
2022/01/20 06:40:35;;;;;;;8.70;3.00;;;;;;;0.70;78.81;98933.48;105853;1273;96494;-73
2022/01/20 06:43:05;;;;;;;11.30;3.10;;;;;;;0.73;78.94;98927.14;105737;1274;137208;-73
2022/01/20 06:45:34;;;;;;;9.20;3.10;;;;;;;0.73;78.45;98919.44;105970;1273;109109;-74
2022/01/20 06:48:09;;;;;;;10.90;2.90;;;;;;;0.72;78.52;98918.41;105734;1275;109154;-74
2022/01/20 06:50:44;;;;;;;9.90;3.10;;;;;;;0.69;78.24;98922.04;105635;1275;138695;-73
2022/01/20 06:53:12;;;;;;;14.40;2.90;;;;;;;0.67;78.04;98923.45;105743;1274;96577;-74
2022/01/20 06:55:41;;;;;;;9.50;3.30;;;;;;;0.67;78.10;98927.39;105622;1274;137172;-73
2022/01/20 06:58:10;;;;;;;15.00;3.20;;;;;;;0.62;77.84;98930.88;106048;1274;108928;-74
2022/01/20 07:00:39;;;;;;;8.70;2.90;;;;;;;0.58;77.72;98929.39;106018;1273;138402;-74
